Black Mesa, Arizona
Current Conditions -  °F | °C
As of 4:53 PM on Saturday 20 Dec 2014 (Local Time) from KPGA Reporting Station
Overcast Overcast  
Wind Chill: 38°   Ceiling: 11000
Heat Index: 41°   Visibility: 10mi
Dew Point: 30°   Wind: 5mph
Humidity: 65%   Direction: 10°N
Pressure: 30.15"   Gusts: NA
Location:  36.6859°N, 110.268°W
Report Text: KPGA 202353Z AUTO 01004KT 10SM FEW022 OVC110 05/M01 A3015 RMK AO2 SLP208 T00501011 10056 20039 53004 TSNO
Loading
Personal Weather Stations






























Interactive Weather Map New forecast layout! Learn more

10-Day Weather Forecast

Advertisements
Track Severe Weather on mobile